createdAt,value
2022-08-21T00:03:04.082Z,8.02
2022-08-21T00:09:10.941Z,8.05
2022-08-21T00:15:18.914Z,7.68
2022-08-21T00:21:24.069Z,8.10
2022-08-21T00:27:29.008Z,7.20
2022-08-21T00:33:32.882Z,7.32
2022-08-21T00:39:36.452Z,7.03
2022-08-21T00:51:51.224Z,6.60
2022-08-21T00:57:58.857Z,6.55
2022-08-21T01:04:04.972Z,5.80
2022-08-21T01:10:09.848Z,5.63
2022-08-21T01:16:24.792Z,5.53
2022-08-21T01:22:29.830Z,5.97
2022-08-21T01:28:38.977Z,5.25
2022-08-21T01:34:45.378Z,5.75
2022-08-21T01:40:50.624Z,4.97
2022-08-21T01:46:56.070Z,5.38
2022-08-21T01:52:59.814Z,4.30
2022-08-21T01:59:04.864Z,4.30
2022-08-21T02:05:09.413Z,4.38
2022-08-21T02:11:12.985Z,3.50
2022-08-21T02:17:17.886Z,2.42
2022-08-21T02:23:21.534Z,2.60
2022-08-21T02:29:31.009Z,2.22
2022-08-21T02:35:36.197Z,2.20
2022-08-21T02:41:39.762Z,2.20
2022-08-21T02:47:50.023Z,1.73
2022-08-21T02:53:55.002Z,1.88
2022-08-21T02:59:58.565Z,2.10
2022-08-21T03:06:02.468Z,2.03
2022-08-21T03:12:07.841Z,2.00
2022-08-21T03:18:13.062Z,1.85
2022-08-21T03:24:17.674Z,2.33
2022-08-21T03:30:26.615Z,1.50
2022-08-21T03:36:30.141Z,1.98
2022-08-21T03:42:33.694Z,1.98
2022-08-21T03:48:39.592Z,1.63
2022-08-21T03:54:43.133Z,2.03
2022-08-21T04:00:47.714Z,1.88
2022-08-21T04:06:52.920Z,1.58
2022-08-21T04:12:57.712Z,1.55
2022-08-21T04:19:01.332Z,1.75
2022-08-21T04:25:08.314Z,1.65
2022-08-21T04:31:11.870Z,1.77
2022-08-21T04:37:16.420Z,1.38
2022-08-21T04:43:24.398Z,1.45
2022-08-21T04:49:28.019Z,1.83
2022-08-21T04:55:31.673Z,1.40
2022-08-21T05:01:39.492Z,1.52
2022-08-21T05:07:46.291Z,1.50
2022-08-21T05:13:50.007Z,1.20
2022-08-21T05:20:02.799Z,1.50
2022-08-21T05:26:06.880Z,1.60
2022-08-21T05:32:21.969Z,1.50
2022-08-21T05:38:28.440Z,1.50
2022-08-21T05:44:32.020Z,1.23
2022-08-21T05:50:39.138Z,1.52
2022-08-21T05:56:45.587Z,1.50
2022-08-21T06:02:49.764Z,1.30
2022-08-21T06:08:53.731Z,1.90
2022-08-21T06:14:58.810Z,1.10
2022-08-21T06:21:02.502Z,1.40
2022-08-21T06:33:14.344Z,3.67
2022-08-21T06:39:24.791Z,2.90
2022-08-21T06:45:32.237Z,2.15
2022-08-21T06:51:37.422Z,1.60
2022-08-21T06:57:40.977Z,1.80
2022-08-21T07:03:51.521Z,1.30
2022-08-21T07:09:57.042Z,1.48
2022-08-21T07:16:04.096Z,1.40
2022-08-21T07:22:08.355Z,1.60
2022-08-21T07:34:16.773Z,1.63
2022-08-21T07:40:20.606Z,1.42
2022-08-21T07:46:27.634Z,1.25
2022-08-21T07:52:31.980Z,1.40
2022-08-21T07:58:35.613Z,1.55
2022-08-21T08:10:55.983Z,1.20
2022-08-21T08:16:59.673Z,1.33
2022-08-21T08:29:08.251Z,1.25
2022-08-21T08:35:12.466Z,1.30
2022-08-21T08:41:24.018Z,1.60
2022-08-21T08:47:40.077Z,1.50
2022-08-21T08:53:52.140Z,1.10
2022-08-21T09:00:00.856Z,1.45
2022-08-21T09:06:14.340Z,1.42
2022-08-21T09:12:27.377Z,1.60
2022-08-21T09:18:43.524Z,1.60
2022-08-21T09:25:01.541Z,1.30
2022-08-21T09:31:09.077Z,1.38
2022-08-21T09:37:20.782Z,1.48
2022-08-21T09:43:27.011Z,2.00
2022-08-21T09:49:31.817Z,1.70
2022-08-21T09:56:06.301Z,1.90
2022-08-21T10:02:25.530Z,1.50
2022-08-21T10:08:30.913Z,1.50
2022-08-21T10:14:50.510Z,1.40
2022-08-21T10:21:03.067Z,1.70
2022-08-21T10:27:24.677Z,1.50
2022-08-21T10:33:39.678Z,1.42
2022-08-21T10:39:56.943Z,1.80
2022-08-21T10:46:09.659Z,4.05
2022-08-21T10:52:33.099Z,4.63
2022-08-21T10:58:44.889Z,3.03
2022-08-21T11:04:56.060Z,2.67
2022-08-21T11:11:08.601Z,1.90
2022-08-21T11:17:17.259Z,2.08
2022-08-21T11:23:27.246Z,1.70
2022-08-21T11:29:35.644Z,1.80
2022-08-21T11:35:45.395Z,1.85
2022-08-21T11:41:56.952Z,1.75
2022-08-21T11:48:15.612Z,1.70
2022-08-21T11:54:29.301Z,1.48
2022-08-21T12:00:38.611Z,1.33
2022-08-21T12:06:44.192Z,1.48
2022-08-21T12:12:47.836Z,2.20
2022-08-21T12:25:06.693Z,2.23
2022-08-21T12:31:23.732Z,2.00
2022-08-21T12:37:39.418Z,2.03
2022-08-21T12:43:49.839Z,1.98
2022-08-21T12:49:59.006Z,1.33
2022-08-21T12:56:05.130Z,1.40
2022-08-21T13:02:19.126Z,1.33
2022-08-21T13:08:24.601Z,1.50
2022-08-21T13:14:32.613Z,1.35
2022-08-21T13:20:40.146Z,1.20
2022-08-21T13:26:44.867Z,1.25
2022-08-21T13:32:53.904Z,1.50
2022-08-21T13:39:00.701Z,1.30
2022-08-21T13:45:04.626Z,1.30
2022-08-21T13:51:08.550Z,1.45
2022-08-21T13:57:21.432Z,1.73
2022-08-21T14:03:36.782Z,1.10
2022-08-21T14:09:45.214Z,1.33
2022-08-21T14:15:58.821Z,1.48
2022-08-21T14:34:30.759Z,1.48
2022-08-21T14:40:36.507Z,1.23
2022-08-21T14:46:54.311Z,1.40
2022-08-21T14:53:01.665Z,1.05
2022-08-21T14:59:08.250Z,1.55
2022-08-21T15:05:12.361Z,1.25
2022-08-21T15:11:41.789Z,1.40
2022-08-21T15:17:48.336Z,1.10
2022-08-21T15:23:52.589Z,1.35
2022-08-21T15:29:57.935Z,1.25
2022-08-21T15:36:01.617Z,1.13
2022-08-21T15:42:10.891Z,1.30
2022-08-21T15:48:16.463Z,1.00
2022-08-21T15:54:20.191Z,1.00
2022-08-21T16:00:26.975Z,1.20
2022-08-21T16:06:38.475Z,1.40
2022-08-21T16:13:00.102Z,1.10
2022-08-21T16:19:07.124Z,1.40
2022-08-21T16:25:12.442Z,1.40
2022-08-21T16:31:17.627Z,1.23
2022-08-21T16:37:24.411Z,1.20
2022-08-21T16:43:31.195Z,1.13
2022-08-21T16:49:36.129Z,1.10
2022-08-21T16:55:40.372Z,1.10
2022-08-21T17:01:48.122Z,1.20
2022-08-21T17:07:51.895Z,1.45
2022-08-21T17:13:56.949Z,1.20
2022-08-21T17:20:02.091Z,0.95
2022-08-21T17:26:06.217Z,1.10
2022-08-21T17:32:20.007Z,1.30
2022-08-21T17:38:24.965Z,1.70
2022-08-21T17:44:32.008Z,1.30
2022-08-21T17:50:36.957Z,1.40
2022-08-21T17:56:44.266Z,1.42
2022-08-21T18:02:53.270Z,1.00
2022-08-21T18:08:58.017Z,1.35
2022-08-21T18:15:04.394Z,1.20
2022-08-21T18:21:10.361Z,1.48
2022-08-21T18:27:16.227Z,1.60
2022-08-21T18:33:24.646Z,1.70
2022-08-21T18:39:37.278Z,1.40
2022-08-21T18:45:42.569Z,1.33
2022-08-21T18:51:48.063Z,1.27
2022-08-21T18:57:59.813Z,1.65
2022-08-21T19:04:05.675Z,1.67
2022-08-21T19:10:28.585Z,1.60
2022-08-21T19:16:47.495Z,1.58
2022-08-21T19:22:53.611Z,1.48
2022-08-21T19:29:05.967Z,1.20
2022-08-21T19:35:10.685Z,1.13
2022-08-21T19:41:17.322Z,1.20
2022-08-21T19:53:52.596Z,1.17
2022-08-21T20:00:00.072Z,1.55
2022-08-21T20:06:06.108Z,1.55
2022-08-21T20:12:13.385Z,1.52
2022-08-21T20:18:17.651Z,1.60
2022-08-21T20:24:22.657Z,1.20
2022-08-21T20:30:31.463Z,1.75
2022-08-21T20:36:35.125Z,1.40
2022-08-21T20:42:44.897Z,1.48
2022-08-21T20:55:16.226Z,1.60
2022-08-21T21:01:22.426Z,1.40
2022-08-21T21:07:31.178Z,1.58
2022-08-21T21:13:40.776Z,1.50
2022-08-21T21:19:52.728Z,1.52
2022-08-21T21:26:04.165Z,1.40
2022-08-21T21:32:17.940Z,1.30
2022-08-21T21:38:30.353Z,1.67
2022-08-21T21:44:54.885Z,1.35
2022-08-21T21:51:03.037Z,1.50
2022-08-21T21:57:32.348Z,1.45
2022-08-21T22:03:43.676Z,2.00
2022-08-21T22:09:51.445Z,1.95
2022-08-21T22:15:57.289Z,1.83
2022-08-21T22:22:08.821Z,1.55
2022-08-21T22:28:25.581Z,1.75
2022-08-21T22:34:32.042Z,1.90
2022-08-21T22:40:37.673Z,1.65
2022-08-21T22:46:45.862Z,1.60
2022-08-21T22:52:54.489Z,1.58
2022-08-21T22:59:00.920Z,1.55
2022-08-21T23:05:10.419Z,1.80
2022-08-21T23:11:21.018Z,1.67
2022-08-21T23:17:38.284Z,1.70
2022-08-21T23:24:04.101Z,1.67
2022-08-21T23:30:12.835Z,1.70
2022-08-21T23:36:42.350Z,1.67
2022-08-21T23:43:00.349Z,1.73
2022-08-21T23:49:24.413Z,1.70
2022-08-21T23:55:45.220Z,1.90
